createdAt,value
2023-03-21T00:01:51.668Z,10.27
2023-03-21T00:04:18.623Z,10.88
2023-03-21T00:06:45.503Z,10.90
2023-03-21T00:09:12.843Z,10.38
2023-03-21T00:11:40.426Z,11.45
2023-03-21T00:14:08.679Z,10.85
2023-03-21T00:16:36.649Z,10.85
2023-03-21T00:19:06.535Z,10.50
2023-03-21T00:21:59.265Z,10.95
2023-03-21T00:24:25.596Z,11.15
2023-03-21T00:26:53.050Z,11.23
2023-03-21T00:29:20.902Z,11.13
2023-03-21T00:31:47.837Z,11.20
2023-03-21T00:34:15.988Z,10.45
2023-03-21T00:36:43.505Z,11.38
2023-03-21T00:39:11.230Z,10.23
2023-03-21T00:41:43.129Z,10.68
2023-03-21T00:44:13.825Z,11.30
2023-03-21T00:46:57.088Z,9.55
2023-03-21T00:49:27.857Z,10.05
2023-03-21T00:51:55.343Z,9.98
2023-03-21T00:54:24.630Z,9.27
2023-03-21T00:56:51.827Z,10.10
2023-03-21T00:59:18.790Z,9.65
2023-03-21T01:01:46.762Z,9.30
2023-03-21T01:04:16.694Z,9.88
2023-03-21T01:06:44.477Z,8.32
2023-03-21T01:09:18.770Z,8.90
2023-03-21T01:11:46.354Z,9.27
2023-03-21T01:14:22.618Z,9.70
2023-03-21T01:16:53.109Z,9.18
2023-03-21T01:19:27.536Z,9.45
2023-03-21T01:21:57.288Z,9.05
2023-03-21T01:24:24.851Z,9.38
2023-03-21T01:26:51.834Z,9.38
2023-03-21T01:29:19.053Z,9.70
2023-03-21T01:31:46.593Z,9.57
2023-03-21T01:34:13.499Z,9.65
2023-03-21T01:36:41.214Z,11.27
2023-03-21T01:39:13.462Z,9.75
2023-03-21T01:41:44.517Z,9.80
2023-03-21T01:44:19.279Z,10.35
2023-03-21T01:47:03.575Z,10.52
2023-03-21T01:49:51.195Z,10.95
2023-03-21T01:52:35.898Z,10.55
2023-03-21T01:55:11.678Z,9.60
2023-03-21T01:58:04.250Z,10.50
2023-03-21T02:00:37.864Z,11.48
2023-03-21T02:03:29.775Z,10.95
2023-03-21T02:06:38.207Z,10.93
2023-03-21T02:09:16.579Z,11.15
2023-03-21T02:11:46.610Z,11.57
2023-03-21T02:14:28.265Z,12.20
2023-03-21T02:17:36.973Z,11.55
2023-03-21T02:20:12.028Z,12.68
2023-03-21T02:22:47.879Z,11.05
2023-03-21T02:25:45.670Z,12.10
2023-03-21T02:28:35.899Z,11.95
2023-03-21T02:31:08.936Z,11.80
2023-03-21T02:34:19.199Z,12.05
2023-03-21T02:36:49.192Z,11.90
2023-03-21T02:39:23.363Z,12.02
2023-03-21T02:42:26.913Z,12.57
2023-03-21T02:45:15.517Z,12.07
2023-03-21T02:48:04.656Z,11.52
2023-03-21T02:50:41.853Z,12.82
2023-03-21T02:53:11.909Z,12.15
2023-03-21T02:55:43.056Z,12.48
2023-03-21T02:58:16.713Z,12.77
2023-03-21T03:00:50.422Z,12.63
2023-03-21T03:03:34.762Z,12.13
2023-03-21T03:06:13.950Z,12.65
2023-03-21T03:08:59.765Z,12.93
2023-03-21T03:11:36.545Z,12.10
2023-03-21T03:14:41.975Z,11.60
2023-03-21T03:17:44.144Z,13.48
2023-03-21T03:20:27.150Z,11.85
2023-03-21T03:23:27.642Z,12.30
2023-03-21T03:26:05.563Z,12.18
2023-03-21T03:28:38.908Z,12.80
2023-03-21T03:31:16.797Z,11.10
2023-03-21T03:33:55.595Z,12.13
2023-03-21T03:36:32.592Z,12.20
2023-03-21T03:39:14.515Z,11.43
2023-03-21T03:42:15.458Z,12.55
2023-03-21T03:44:49.005Z,11.27
2023-03-21T03:47:34.947Z,12.00
2023-03-21T03:50:13.947Z,11.77
2023-03-21T03:52:56.989Z,11.32
2023-03-21T03:55:34.351Z,10.38
2023-03-21T03:58:21.088Z,11.07
2023-03-21T04:00:49.792Z,11.02
2023-03-21T04:03:16.847Z,11.18
2023-03-21T04:05:46.282Z,10.85
2023-03-21T04:08:15.882Z,11.15
2023-03-21T04:10:46.775Z,9.52
2023-03-21T04:13:14.936Z,7.68
2023-03-21T04:16:07.050Z,8.18
2023-03-21T04:18:34.314Z,7.80
2023-03-21T04:21:01.420Z,7.88
2023-03-21T04:23:30.598Z,7.90
2023-03-21T04:25:57.601Z,7.18
2023-03-21T04:28:37.078Z,7.57
2023-03-21T04:31:28.679Z,7.15
2023-03-21T04:34:10.052Z,6.55
2023-03-21T04:36:44.331Z,6.35
2023-03-21T04:39:14.019Z,7.00
2023-03-21T04:41:45.415Z,7.88
2023-03-21T04:44:14.233Z,9.05
2023-03-21T04:46:41.370Z,9.13
2023-03-21T04:49:09.828Z,9.10
2023-03-21T04:51:37.645Z,8.88
2023-03-21T04:56:36.142Z,9.70
2023-03-21T04:59:11.033Z,8.82
2023-03-21T05:01:38.267Z,11.10
2023-03-21T05:04:05.968Z,9.98
2023-03-21T05:06:34.923Z,9.25
2023-03-21T05:09:05.543Z,9.52
2023-03-21T05:11:37.691Z,9.10
2023-03-21T05:14:06.434Z,8.70
2023-03-21T05:16:34.646Z,9.43
2023-03-21T05:19:06.200Z,8.82
2023-03-21T05:21:41.540Z,8.15
2023-03-21T05:24:19.346Z,7.72
2023-03-21T05:26:56.107Z,7.97
2023-03-21T05:29:25.897Z,8.00
2023-03-21T05:32:01.411Z,7.67
2023-03-21T05:34:29.661Z,7.97
2023-03-21T05:36:56.901Z,7.65
2023-03-21T05:39:26.964Z,7.28
2023-03-21T05:42:08.824Z,7.40
2023-03-21T05:44:35.921Z,7.72
2023-03-21T05:47:06.569Z,7.70
2023-03-21T05:49:44.095Z,7.43
2023-03-21T05:52:11.427Z,7.82
2023-03-21T05:54:38.516Z,8.23
2023-03-21T05:57:06.552Z,7.57
2023-03-21T05:59:59.304Z,8.25
2023-03-21T06:02:28.197Z,8.52
2023-03-21T06:04:57.386Z,7.88
2023-03-21T06:07:24.331Z,8.35
2023-03-21T06:09:51.515Z,7.90
2023-03-21T06:12:18.876Z,9.25
2023-03-21T06:17:49.855Z,8.50
2023-03-21T06:20:17.376Z,8.00
2023-03-21T06:22:49.259Z,8.45
2023-03-21T06:25:16.725Z,9.43
2023-03-21T06:27:44.295Z,8.50
2023-03-21T06:30:11.844Z,8.43
2023-03-21T06:32:46.350Z,8.48
2023-03-21T06:35:16.986Z,9.07
2023-03-21T06:37:45.500Z,8.65
2023-03-21T06:40:13.845Z,9.60
2023-03-21T06:42:41.103Z,8.95
2023-03-21T06:45:11.947Z,9.90
2023-03-21T06:47:39.131Z,9.65
2023-03-21T06:50:12.852Z,9.57
2023-03-21T06:52:42.717Z,10.15
2023-03-21T06:55:10.439Z,10.02
2023-03-21T06:57:37.874Z,9.65
2023-03-21T07:00:05.618Z,9.88
2023-03-21T07:02:33.296Z,10.32
2023-03-21T07:05:06.798Z,11.57
2023-03-21T07:07:33.893Z,10.65
2023-03-21T07:10:00.725Z,10.35
2023-03-21T07:12:34.233Z,10.43
2023-03-21T07:15:12.223Z,9.98
2023-03-21T07:17:41.589Z,10.27
2023-03-21T07:20:09.151Z,9.35
2023-03-21T07:22:36.521Z,10.35
2023-03-21T07:25:05.504Z,10.13
2023-03-21T07:27:40.780Z,10.27
2023-03-21T07:30:09.685Z,10.15
2023-03-21T07:32:37.946Z,9.07
2023-03-21T07:35:11.402Z,9.60
2023-03-21T07:37:39.430Z,10.13
2023-03-21T07:40:10.815Z,9.65
2023-03-21T07:42:41.150Z,9.77
2023-03-21T07:45:11.459Z,9.25
2023-03-21T07:47:38.477Z,9.00
2023-03-21T07:50:05.806Z,8.52
2023-03-21T07:52:33.132Z,9.07
2023-03-21T07:55:00.037Z,9.50
2023-03-21T07:57:27.106Z,9.43
2023-03-21T07:59:53.955Z,8.52
2023-03-21T08:02:20.986Z,8.85
2023-03-21T08:04:48.252Z,8.43
2023-03-21T08:07:15.217Z,8.23
2023-03-21T08:09:43.772Z,8.45
2023-03-21T08:12:11.327Z,8.27
2023-03-21T08:14:38.677Z,7.72
2023-03-21T08:17:06.789Z,8.90
2023-03-21T08:19:33.720Z,8.88
2023-03-21T08:22:01.235Z,8.35
2023-03-21T08:24:28.849Z,8.45
2023-03-21T08:26:55.854Z,8.85
2023-03-21T08:29:25.094Z,9.20
2023-03-21T08:31:52.037Z,7.97
2023-03-21T08:34:19.821Z,8.50
2023-03-21T08:36:47.147Z,8.95
2023-03-21T08:39:14.163Z,8.23
2023-03-21T08:41:42.286Z,8.05
2023-03-21T08:44:10.797Z,8.63
2023-03-21T08:46:37.802Z,8.02
2023-03-21T08:49:04.851Z,7.90
2023-03-21T08:51:31.767Z,9.02
2023-03-21T08:53:58.610Z,8.23
2023-03-21T08:56:25.649Z,8.15
2023-03-21T08:58:52.491Z,9.15
2023-03-21T09:01:19.554Z,8.73
2023-03-21T09:03:46.489Z,10.38
2023-03-21T09:06:14.291Z,7.43
2023-03-21T09:08:46.467Z,8.40
2023-03-21T09:11:13.838Z,8.38
2023-03-21T09:13:40.862Z,8.20
2023-03-21T09:16:08.851Z,7.78
2023-03-21T09:18:47.102Z,8.02
2023-03-21T09:21:16.165Z,7.75
2023-03-21T09:23:44.938Z,7.95
2023-03-21T09:26:13.407Z,7.50
2023-03-21T09:28:40.705Z,7.57
2023-03-21T09:31:11.328Z,7.38
2023-03-21T09:33:40.436Z,8.18
2023-03-21T09:36:14.203Z,8.73
2023-03-21T09:38:43.078Z,7.70
2023-03-21T09:41:19.520Z,7.40
2023-03-21T09:43:56.112Z,7.35
2023-03-21T09:46:37.693Z,7.07
2023-03-21T09:49:16.631Z,7.68
2023-03-21T09:51:48.833Z,7.35
2023-03-21T09:54:38.504Z,7.25
2023-03-21T09:57:31.774Z,7.95
2023-03-21T10:00:08.246Z,6.65
2023-03-21T10:03:01.709Z,8.02
2023-03-21T10:05:32.657Z,7.15
2023-03-21T10:07:59.627Z,6.93
2023-03-21T10:10:33.940Z,6.82
2023-03-21T10:13:00.912Z,7.15
2023-03-21T10:15:28.417Z,6.07
2023-03-21T10:18:01.242Z,5.25
2023-03-21T10:20:41.634Z,5.72
2023-03-21T10:23:14.118Z,6.25
2023-03-21T10:25:53.084Z,5.80
2023-03-21T10:28:24.802Z,5.32
2023-03-21T10:30:58.833Z,5.53
2023-03-21T10:33:29.895Z,5.40
2023-03-21T10:36:02.032Z,5.50
2023-03-21T10:38:29.598Z,5.25
2023-03-21T10:40:56.466Z,5.40
2023-03-21T10:43:26.352Z,5.32
2023-03-21T10:45:54.916Z,5.13
2023-03-21T10:48:23.124Z,4.85
2023-03-21T10:50:53.931Z,5.40
2023-03-21T10:53:32.034Z,5.22
2023-03-21T10:56:04.382Z,4.65
2023-03-21T10:58:36.014Z,4.78
2023-03-21T11:01:06.802Z,4.85
2023-03-21T11:03:37.957Z,4.65
2023-03-21T11:06:17.858Z,4.18
2023-03-21T11:08:51.349Z,4.32
2023-03-21T11:11:38.687Z,3.92
2023-03-21T11:14:09.321Z,4.30
2023-03-21T11:16:43.730Z,4.10
2023-03-21T11:19:19.797Z,4.20
2023-03-21T11:21:47.149Z,4.80
2023-03-21T11:24:18.048Z,4.60
2023-03-21T11:26:48.201Z,4.28
2023-03-21T11:29:29.644Z,4.80
2023-03-21T11:32:11.531Z,4.22
2023-03-21T11:34:46.076Z,4.93
2023-03-21T11:37:23.914Z,5.20
2023-03-21T11:39:56.763Z,4.60
2023-03-21T11:42:28.523Z,4.85
2023-03-21T11:45:03.295Z,4.47
2023-03-21T11:47:31.709Z,5.43
2023-03-21T11:50:05.016Z,5.10
2023-03-21T11:52:41.282Z,4.93
2023-03-21T11:55:17.077Z,5.32
2023-03-21T11:58:13.941Z,5.30
2023-03-21T12:00:54.775Z,5.68
2023-03-21T12:03:22.078Z,4.82
2023-03-21T12:05:58.190Z,4.85
2023-03-21T12:09:04.135Z,4.95
2023-03-21T12:12:00.793Z,4.10
2023-03-21T12:14:39.945Z,3.00
2023-03-21T12:17:28.009Z,3.92
2023-03-21T12:20:10.488Z,3.95
2023-03-21T12:23:16.861Z,3.47
2023-03-21T12:25:56.493Z,3.63
2023-03-21T12:29:04.656Z,3.50
2023-03-21T12:31:46.639Z,3.28
2023-03-21T12:34:34.868Z,3.45
2023-03-21T12:37:13.712Z,3.38
2023-03-21T12:39:41.156Z,3.03
2023-03-21T12:42:07.947Z,3.60
2023-03-21T12:45:06.067Z,3.33
2023-03-21T12:47:35.746Z,3.70
2023-03-21T12:50:26.306Z,3.75
2023-03-21T12:52:59.135Z,3.60
2023-03-21T12:55:30.864Z,4.53
2023-03-21T12:58:13.435Z,3.92
2023-03-21T13:00:54.510Z,3.78
2023-03-21T13:03:39.929Z,3.67
2023-03-21T13:09:03.561Z,3.90
2023-03-21T13:11:32.056Z,3.50
2023-03-21T13:14:02.210Z,4.15
2023-03-21T13:16:49.649Z,3.20
2023-03-21T13:19:23.497Z,3.40
2023-03-21T13:22:14.820Z,2.85
2023-03-21T13:25:09.457Z,2.53
2023-03-21T13:27:41.079Z,2.35
2023-03-21T13:30:29.414Z,1.92
2023-03-21T13:33:11.571Z,2.40
2023-03-21T13:35:42.490Z,2.05
2023-03-21T13:38:26.559Z,2.05
2023-03-21T13:41:07.842Z,2.10
2023-03-21T13:43:52.039Z,2.65
2023-03-21T13:46:25.031Z,2.42
2023-03-21T13:49:10.152Z,1.88
2023-03-21T13:51:37.125Z,2.33
2023-03-21T13:54:44.889Z,2.30
2023-03-21T13:57:33.255Z,2.58
2023-03-21T14:00:16.819Z,1.90
2023-03-21T14:03:13.475Z,2.20
2023-03-21T14:05:40.843Z,2.05
2023-03-21T14:08:24.755Z,2.55
2023-03-21T14:11:04.087Z,2.20
2023-03-21T14:13:33.100Z,2.30
2023-03-21T14:16:09.726Z,2.25
2023-03-21T14:19:04.710Z,2.17
2023-03-21T14:21:34.604Z,2.45
2023-03-21T14:24:12.445Z,2.60
2023-03-21T14:26:45.894Z,2.50
2023-03-21T14:29:33.352Z,2.80
2023-03-21T14:32:01.690Z,2.95
2023-03-21T14:34:35.354Z,2.65
2023-03-21T14:37:02.434Z,2.50
2023-03-21T14:39:31.676Z,2.30
2023-03-21T14:42:08.360Z,2.20
2023-03-21T14:44:56.227Z,2.28
2023-03-21T14:47:29.831Z,2.10
2023-03-21T14:49:58.064Z,1.90
2023-03-21T14:52:30.051Z,2.03
2023-03-21T14:54:57.918Z,2.30
2023-03-21T14:57:31.413Z,2.20
2023-03-21T15:00:01.981Z,1.83
2023-03-21T15:02:36.814Z,2.05
2023-03-21T15:05:21.615Z,2.40
2023-03-21T15:08:03.661Z,1.90
2023-03-21T15:10:32.103Z,2.30
2023-03-21T15:13:02.256Z,1.80
2023-03-21T15:15:31.786Z,1.80
2023-03-21T15:18:03.982Z,1.85
2023-03-21T15:20:34.258Z,1.70
2023-03-21T15:23:06.455Z,2.20
2023-03-21T15:25:36.056Z,1.63
2023-03-21T15:28:04.339Z,2.28
2023-03-21T15:30:34.218Z,2.13
2023-03-21T15:33:10.363Z,2.92
2023-03-21T15:35:46.844Z,3.00
2023-03-21T15:38:40.384Z,2.70
2023-03-21T15:41:20.938Z,3.03
2023-03-21T15:43:48.904Z,3.13
2023-03-21T15:46:51.794Z,2.80
2023-03-21T15:49:21.135Z,3.13
2023-03-21T15:51:55.894Z,4.07
2023-03-21T15:54:27.173Z,2.92
2023-03-21T15:57:01.361Z,2.97
2023-03-21T15:59:33.375Z,2.92
2023-03-21T16:02:00.548Z,2.58
2023-03-21T16:04:27.543Z,2.95
2023-03-21T16:06:57.944Z,2.60
2023-03-21T16:09:25.462Z,2.72
2023-03-21T16:11:54.457Z,2.65
2023-03-21T16:14:23.548Z,2.97
2023-03-21T16:16:51.096Z,2.97
2023-03-21T16:19:18.184Z,3.15
2023-03-21T16:21:46.029Z,3.30
2023-03-21T16:24:13.538Z,2.40
2023-03-21T16:26:48.026Z,2.20
2023-03-21T16:29:16.190Z,2.07
2023-03-21T16:31:43.917Z,2.13
2023-03-21T16:34:12.844Z,2.55
2023-03-21T16:36:41.598Z,2.08
2023-03-21T16:39:24.536Z,2.28
2023-03-21T16:41:51.804Z,2.22
2023-03-21T16:44:19.580Z,1.92
2023-03-21T16:46:49.876Z,2.33
2023-03-21T16:49:25.613Z,2.30
2023-03-21T16:51:54.098Z,1.90
2023-03-21T16:54:21.644Z,1.95
2023-03-21T16:56:55.785Z,2.00
2023-03-21T16:59:22.949Z,1.85
2023-03-21T17:01:50.093Z,1.80
2023-03-21T17:04:18.306Z,2.35
2023-03-21T17:06:52.969Z,1.85
2023-03-21T17:09:23.238Z,2.17
2023-03-21T17:11:50.292Z,2.05
2023-03-21T17:14:18.555Z,2.20
2023-03-21T17:16:46.072Z,2.33
2023-03-21T17:19:15.709Z,2.17
2023-03-21T17:21:42.902Z,2.10
2023-03-21T17:24:09.796Z,2.50
2023-03-21T17:26:37.210Z,2.10
2023-03-21T17:29:05.240Z,2.40
2023-03-21T17:31:37.052Z,2.00
2023-03-21T17:34:04.658Z,2.13
2023-03-21T17:36:37.249Z,2.50
2023-03-21T17:39:06.820Z,2.30
2023-03-21T17:41:33.866Z,2.17
2023-03-21T17:44:01.179Z,2.25
2023-03-21T17:46:29.242Z,2.25
2023-03-21T17:48:56.811Z,2.05
2023-03-21T17:51:26.223Z,2.55
2023-03-21T17:53:53.171Z,2.30
2023-03-21T17:56:27.553Z,2.30
2023-03-21T17:58:54.672Z,2.72
2023-03-21T18:01:23.165Z,2.60
2023-03-21T18:03:50.865Z,2.90
2023-03-21T18:06:20.354Z,3.13
2023-03-21T18:08:48.282Z,3.10
2023-03-21T18:11:16.910Z,2.70
2023-03-21T18:13:44.817Z,3.08
2023-03-21T18:16:20.648Z,2.97
2023-03-21T18:18:48.369Z,2.83
2023-03-21T18:21:19.262Z,2.40
2023-03-21T18:23:47.419Z,2.70
2023-03-21T18:26:23.752Z,2.85
2023-03-21T18:29:36.604Z,2.95
2023-03-21T18:31:38.240Z,2.70
2023-03-21T18:34:05.387Z,2.80
2023-03-21T18:36:32.370Z,3.17
2023-03-21T18:38:59.496Z,3.17
2023-03-21T18:41:26.447Z,2.75
2023-03-21T18:44:02.191Z,2.60
2023-03-21T18:46:36.853Z,3.30
2023-03-21T18:49:30.355Z,2.83
2023-03-21T18:51:52.590Z,3.92
2023-03-21T18:54:19.551Z,2.80
2023-03-21T18:57:35.231Z,3.58
2023-03-21T18:59:39.353Z,3.10
2023-03-21T19:02:07.231Z,3.17
2023-03-21T19:04:34.317Z,3.03
2023-03-21T19:07:01.363Z,3.33
2023-03-21T19:09:31.968Z,4.07
2023-03-21T19:12:00.690Z,3.40
2023-03-21T19:14:28.163Z,3.28
2023-03-21T19:17:41.335Z,3.22
2023-03-21T19:19:43.953Z,3.33
2023-03-21T19:22:11.332Z,4.13
2023-03-21T19:24:39.681Z,3.13
2023-03-21T19:27:07.775Z,3.28
2023-03-21T19:29:34.676Z,3.65
2023-03-21T19:32:01.588Z,4.00
2023-03-21T19:34:29.538Z,3.63
2023-03-21T19:36:57.429Z,3.90
2023-03-21T19:39:25.214Z,4.40
2023-03-21T19:41:55.468Z,3.45
2023-03-21T19:44:30.890Z,3.63
2023-03-21T19:46:58.003Z,3.47
2023-03-21T19:49:37.021Z,3.47
2023-03-21T19:52:13.483Z,3.17
2023-03-21T19:54:40.272Z,3.50
2023-03-21T19:57:09.638Z,3.67
2023-03-21T19:59:36.545Z,3.70
2023-03-21T20:02:25.565Z,3.97
2023-03-21T20:04:51.622Z,3.53
2023-03-21T20:07:18.462Z,3.55
2023-03-21T20:09:52.790Z,3.40
2023-03-21T20:14:49.235Z,3.63
2023-03-21T20:17:16.905Z,3.55
2023-03-21T20:19:43.840Z,3.83
2023-03-21T20:22:21.797Z,3.60
2023-03-21T20:24:54.169Z,3.38
2023-03-21T20:27:25.007Z,4.00
2023-03-21T20:30:09.858Z,4.53
2023-03-21T20:32:38.057Z,3.78
2023-03-21T20:35:18.768Z,3.63
2023-03-21T20:37:48.798Z,4.55
2023-03-21T20:40:19.855Z,4.75
2023-03-21T20:42:48.669Z,3.92
2023-03-21T20:45:17.431Z,4.22
2023-03-21T20:47:44.653Z,4.53
2023-03-21T20:50:14.015Z,3.35
2023-03-21T20:53:06.880Z,4.68
2023-03-21T20:55:31.598Z,3.75
2023-03-21T20:58:01.911Z,3.75
2023-03-21T21:00:29.580Z,4.90
2023-03-21T21:02:57.774Z,5.00
2023-03-21T21:05:30.104Z,4.95
2023-03-21T21:07:58.870Z,4.20
2023-03-21T21:10:26.240Z,3.40
2023-03-21T21:12:53.332Z,5.20
2023-03-21T21:15:21.165Z,5.00
2023-03-21T21:18:06.704Z,4.28
2023-03-21T21:20:35.384Z,4.82
2023-03-21T21:23:02.381Z,3.58
2023-03-21T21:25:32.615Z,3.53
2023-03-21T21:28:01.665Z,4.20
2023-03-21T21:30:29.521Z,3.90
2023-03-21T21:32:59.527Z,4.10
2023-03-21T21:35:26.897Z,4.13
2023-03-21T21:37:53.884Z,3.85
2023-03-21T21:40:23.423Z,4.07
2023-03-21T21:42:50.872Z,3.90
2023-03-21T21:45:18.951Z,4.15
2023-03-21T21:47:46.462Z,4.32
2023-03-21T21:50:14.366Z,4.28
2023-03-21T21:52:43.711Z,3.85
2023-03-21T21:55:13.065Z,4.40
2023-03-21T21:57:40.193Z,4.30
2023-03-21T22:00:12.922Z,4.25
2023-03-21T22:02:42.685Z,3.55
2023-03-21T22:05:10.554Z,4.07
2023-03-21T22:07:38.133Z,4.72
2023-03-21T22:10:05.587Z,3.88
2023-03-21T22:12:32.630Z,4.07
2023-03-21T22:14:59.535Z,4.13
2023-03-21T22:17:26.427Z,4.03
2023-03-21T22:20:05.090Z,3.88
2023-03-21T22:22:37.382Z,3.47
2023-03-21T22:25:07.789Z,3.72
2023-03-21T22:27:34.918Z,3.60
2023-03-21T22:30:05.308Z,3.47
2023-03-21T22:32:36.453Z,3.85
2023-03-21T22:35:05.097Z,3.63
2023-03-21T22:37:33.922Z,4.30
2023-03-21T22:40:01.330Z,4.18
2023-03-21T22:42:28.248Z,3.63
2023-03-21T22:44:55.361Z,4.00
2023-03-21T22:47:22.235Z,4.20
2023-03-21T22:49:49.231Z,4.03
2023-03-21T22:52:16.191Z,3.30
2023-03-21T22:54:43.406Z,4.55
2023-03-21T22:57:10.339Z,3.67
2023-03-21T22:59:37.485Z,4.47
2023-03-21T23:02:04.272Z,3.45
2023-03-21T23:04:31.396Z,3.08
2023-03-21T23:06:58.824Z,3.25
2023-03-21T23:09:25.822Z,2.85
2023-03-21T23:11:52.696Z,2.63
2023-03-21T23:14:21.119Z,3.20
2023-03-21T23:16:49.610Z,2.60
2023-03-21T23:19:17.441Z,2.83
2023-03-21T23:21:44.436Z,2.78
2023-03-21T23:24:11.812Z,3.33
2023-03-21T23:26:39.499Z,3.33
2023-03-21T23:29:10.191Z,3.72
2023-03-21T23:31:37.446Z,3.65
2023-03-21T23:34:04.675Z,3.63
2023-03-21T23:36:32.265Z,3.42
2023-03-21T23:38:59.172Z,3.28
2023-03-21T23:41:26.140Z,3.20
2023-03-21T23:43:53.138Z,3.47
2023-03-21T23:46:20.700Z,3.35
2023-03-21T23:48:48.002Z,2.90
2023-03-21T23:51:17.825Z,3.47
2023-03-21T23:53:46.174Z,3.50
2023-03-21T23:56:16.832Z,5.22
2023-03-21T23:58:44.002Z,3.47
